Exeland, WI (54835)

12:59 PM CDT on September 02, 2015 (GMT -0500)
APRSWXNET | | Change Station
CLOSE
Current Station
Personal Weather Station
Location: Bruce, WI
Elevation: 1003 ft
Nearby Weather Stations

Elev 1003 ft 45.53 °N, 91.23 °W | Updated 31 minutes ago

Rain
Rain
66 °F
Feels Like 66 °F
N
0
Wind Variable Wind from NE
Gusts 0.0 mph

Today
High -- | Low -- °F
--% Chance of Precip.
Yesterday
High -- | Low -- °F
Precip. -- in
6:27 AM 7:41 PM
Waning Gibbous, 78% visible
Pressure 30.03 in
Visibility 2.5 miles
Clouds Scattered Clouds 1400 ft
Mostly Cloudy 2800 ft
Overcast 3300 ft
Dew Point 65 °F
Humidity 96%
Rainfall in
Snow Depth Not available.
UV 2 out of 12
Pollen 10.20 out of 12
Air Quality Not available.
Flu Activity Not available.
METAR KRCX 021755Z AUTO 05007KT 2 1/2SM TSRA SCT014 BKN028 OVC033 20/19 A3003 RMK AO2 VIS 1 3/4V4 LTG DSNT SW AND W T01960186 10205 20195
Pressure 30.03 in
Visibility 2.5 miles
Clouds Scattered Clouds 1400 ft
Mostly Cloudy 2800 ft
Overcast 3300 ft
Dew Point 65 °F
Humidity 96%
Rainfall in
Snow Depth Not available.
UV 2 out of 12
Pollen 10.20 out of 12
Air Quality Not available.
Flu Activity Not available.
METAR KRCX 021755Z AUTO 05007KT 2 1/2SM TSRA SCT014 BKN028 OVC033 20/19 A3003 RMK AO2 VIS 1 3/4V4 LTG DSNT SW AND W T01960186 10205 20195

10-Day Weather Forecast

×

Almanac

Astronomy

Sep. 02, 2015 Rise Set
Actual Time
Civil Twilight
Nautical Twilight
Astronomical Twilight
Moon
Length of Visible Light
Length of Day
Tomorrow will be .
, % of the Moon is Illuminated

Today's Extremes

State Highs State Lows

Community

WunderPhotos

Upload Photos

1,851,789 photos uploaded!

WunderBlogs® & News

Nearby

Air Quality

  Air Quality AQ Index Pollutant
Not available.

Snow Depth

Station Depth Elevation

Earthquake Activity

City Distance Mag. Time & Date
Minimum magnitude displayed is 2.5.

Coastal Water Temperatures

Place Temperature

Stations

Nearby Weather Stations

Station Location Temp. Windchill Dew Point Humidity Wind Precip. Elev Updated Type